createdAt,value
2022-09-10T00:02:12.295Z,4.90
2022-09-10T00:04:38.823Z,4.68
2022-09-10T00:07:05.780Z,5.60
2022-09-10T00:09:32.682Z,4.70
2022-09-10T00:11:59.585Z,5.07
2022-09-10T00:14:26.523Z,5.00
2022-09-10T00:16:53.556Z,4.88
2022-09-10T00:19:21.650Z,5.13
2022-09-10T00:21:50.699Z,4.43
2022-09-10T00:24:17.666Z,4.88
2022-09-10T00:26:44.912Z,4.93
2022-09-10T00:29:12.772Z,4.53
2022-09-10T00:31:40.251Z,4.20
2022-09-10T00:34:07.614Z,4.30
2022-09-10T00:36:38.854Z,4.25
2022-09-10T00:39:09.587Z,4.30
2022-09-10T00:41:38.659Z,3.85
2022-09-10T00:44:07.787Z,4.70
2022-09-10T00:46:56.522Z,4.53
2022-09-10T00:49:32.366Z,3.90
2022-09-10T00:52:00.786Z,4.20
2022-09-10T00:54:28.708Z,4.72
2022-09-10T00:56:59.803Z,3.90
2022-09-10T00:59:27.507Z,4.43
2022-09-10T01:01:56.000Z,4.53
2022-09-10T01:04:22.696Z,4.43
2022-09-10T01:06:51.851Z,3.97
2022-09-10T01:09:20.422Z,3.78
2022-09-10T01:12:22.294Z,3.00
2022-09-10T01:15:05.986Z,3.65
2022-09-10T01:18:03.742Z,3.30
2022-09-10T01:21:01.756Z,4.32
2022-09-10T01:23:52.542Z,4.60
2022-09-10T01:27:06.507Z,4.07
2022-09-10T01:30:11.704Z,4.47
2022-09-10T01:32:51.779Z,3.55
2022-09-10T01:35:41.079Z,3.88
2022-09-10T01:38:14.671Z,3.53
2022-09-10T01:40:42.599Z,3.63
2022-09-10T01:43:10.398Z,3.55
2022-09-10T01:46:13.635Z,3.72
2022-09-10T01:49:08.123Z,3.92
2022-09-10T01:51:52.207Z,3.80
2022-09-10T01:54:46.582Z,3.80
2022-09-10T01:57:33.686Z,3.60
2022-09-10T02:00:09.890Z,4.15
2022-09-10T02:02:42.227Z,4.35
2022-09-10T02:05:09.778Z,4.18
2022-09-10T02:07:37.545Z,3.90
2022-09-10T02:10:07.184Z,4.00
2022-09-10T02:12:34.885Z,3.30
2022-09-10T02:15:01.713Z,3.60
2022-09-10T02:17:36.450Z,3.67
2022-09-10T02:20:07.146Z,3.80
2022-09-10T02:22:36.193Z,3.80
2022-09-10T02:25:04.835Z,4.03
2022-09-10T02:27:31.960Z,3.78
2022-09-10T02:29:58.967Z,4.00
2022-09-10T02:32:25.499Z,4.50
2022-09-10T02:34:52.525Z,3.97
2022-09-10T02:37:20.028Z,3.55
2022-09-10T02:39:46.618Z,3.42
2022-09-10T02:42:17.233Z,3.67
2022-09-10T02:44:45.340Z,3.33
2022-09-10T02:47:12.878Z,3.45
2022-09-10T02:49:39.563Z,3.65
2022-09-10T02:52:06.725Z,3.30
2022-09-10T02:54:33.674Z,3.47
2022-09-10T02:57:00.888Z,4.10
2022-09-10T02:59:27.792Z,3.60
2022-09-10T03:01:54.620Z,3.53
2022-09-10T03:04:21.559Z,3.70
2022-09-10T03:06:49.350Z,3.33
2022-09-10T03:09:17.090Z,3.72
2022-09-10T03:11:43.975Z,3.20
2022-09-10T03:14:10.845Z,2.30
2022-09-10T03:16:37.803Z,2.42
2022-09-10T03:19:04.362Z,2.83
2022-09-10T03:21:31.267Z,3.00
2022-09-10T03:23:58.180Z,2.85
2022-09-10T03:26:25.373Z,3.60
2022-09-10T03:28:52.780Z,3.40
2022-09-10T03:31:19.351Z,3.10
2022-09-10T03:33:46.618Z,3.35
2022-09-10T03:36:13.276Z,3.35
2022-09-10T03:38:41.139Z,2.97
2022-09-10T03:41:08.034Z,3.13
2022-09-10T03:43:37.725Z,3.42
2022-09-10T03:46:05.307Z,4.15
2022-09-10T03:48:32.359Z,4.03
2022-09-10T03:50:59.575Z,4.50
2022-09-10T03:53:26.527Z,3.80
2022-09-10T03:55:56.027Z,4.35
2022-09-10T03:58:23.106Z,4.68
2022-09-10T04:00:49.733Z,4.13
2022-09-10T04:03:16.654Z,4.15
2022-09-10T04:05:44.400Z,4.13
2022-09-10T04:08:15.199Z,4.40
2022-09-10T04:10:42.815Z,4.55
2022-09-10T04:13:09.816Z,4.28
2022-09-10T04:15:37.796Z,4.70
2022-09-10T04:18:05.972Z,4.18
2022-09-10T04:20:33.634Z,4.63
2022-09-10T04:23:00.757Z,4.60
2022-09-10T04:25:28.209Z,3.60
2022-09-10T04:27:54.824Z,4.30
2022-09-10T04:30:21.814Z,3.83
2022-09-10T04:32:49.547Z,3.95
2022-09-10T04:35:16.111Z,3.28
2022-09-10T04:37:43.495Z,3.70
2022-09-10T04:40:10.938Z,3.47
2022-09-10T04:42:38.713Z,3.92
2022-09-10T04:45:06.907Z,3.88
2022-09-10T04:47:34.196Z,3.97
2022-09-10T04:50:01.041Z,3.83
2022-09-10T04:52:28.223Z,4.32
2022-09-10T04:54:55.126Z,3.85
2022-09-10T04:57:22.007Z,4.20
2022-09-10T04:59:48.927Z,4.22
2022-09-10T05:02:15.989Z,3.90
2022-09-10T05:04:42.673Z,3.78
2022-09-10T05:07:09.562Z,3.38
2022-09-10T05:09:36.502Z,3.60
2022-09-10T05:12:04.328Z,3.45
2022-09-10T05:14:30.823Z,3.65
2022-09-10T05:16:57.921Z,3.50
2022-09-10T05:19:24.456Z,3.28
2022-09-10T05:21:51.487Z,3.55
2022-09-10T05:24:18.428Z,3.88
2022-09-10T05:26:46.200Z,4.30
2022-09-10T05:29:14.331Z,4.28
2022-09-10T05:31:41.234Z,5.10
2022-09-10T05:34:08.653Z,4.53
2022-09-10T05:36:35.828Z,4.90
2022-09-10T05:39:03.813Z,4.88
2022-09-10T05:41:31.474Z,5.28
2022-09-10T05:43:59.212Z,4.38
2022-09-10T05:46:25.975Z,4.43
2022-09-10T05:48:55.965Z,4.60
2022-09-10T05:51:23.012Z,4.55
2022-09-10T05:53:49.859Z,4.97
2022-09-10T05:56:17.006Z,4.70
2022-09-10T05:58:45.587Z,5.28
2022-09-10T06:01:12.569Z,4.80
2022-09-10T06:03:40.729Z,4.65
2022-09-10T06:06:08.136Z,4.22
2022-09-10T06:08:35.923Z,5.22
2022-09-10T06:11:05.631Z,4.70
2022-09-10T06:13:33.671Z,4.60
2022-09-10T06:16:00.815Z,4.65
2022-09-10T06:18:28.321Z,4.63
2022-09-10T06:21:02.902Z,5.22
2022-09-10T06:23:30.302Z,4.70
2022-09-10T06:26:12.340Z,5.45
2022-09-10T06:28:40.306Z,4.47
2022-09-10T06:31:08.479Z,4.95
2022-09-10T06:33:35.194Z,3.92
2022-09-10T06:36:03.649Z,3.40
2022-09-10T06:38:33.455Z,3.33
2022-09-10T06:41:02.394Z,3.70
2022-09-10T06:43:33.313Z,3.17
2022-09-10T06:45:59.895Z,3.28
2022-09-10T06:48:48.039Z,2.78
2022-09-10T06:51:16.046Z,2.80
2022-09-10T06:53:43.814Z,3.45
2022-09-10T06:56:12.432Z,2.90
2022-09-10T06:58:39.937Z,2.72
2022-09-10T07:01:14.146Z,3.10
2022-09-10T07:03:43.716Z,2.90
2022-09-10T07:06:17.250Z,3.60
2022-09-10T07:08:44.079Z,3.38
2022-09-10T07:11:13.910Z,2.97
2022-09-10T07:13:41.280Z,2.65
2022-09-10T07:16:07.889Z,2.25
2022-09-10T07:18:35.430Z,2.25
2022-09-10T07:21:13.767Z,2.88
2022-09-10T07:23:41.615Z,2.20
2022-09-10T07:26:11.353Z,2.30
2022-09-10T07:28:40.177Z,2.25
2022-09-10T07:31:17.468Z,1.90
2022-09-10T07:33:44.683Z,2.10
2022-09-10T07:36:12.903Z,2.22
2022-09-10T07:38:40.866Z,2.13
2022-09-10T07:41:11.548Z,1.70
2022-09-10T07:43:39.599Z,1.95
2022-09-10T07:46:07.268Z,2.13
2022-09-10T07:48:34.602Z,2.05
2022-09-10T07:51:03.798Z,1.95
2022-09-10T07:53:30.710Z,1.48
2022-09-10T07:56:06.708Z,1.88
2022-09-10T07:58:35.714Z,2.10
2022-09-10T08:01:07.423Z,1.70
2022-09-10T08:03:33.971Z,1.73
2022-09-10T08:06:02.088Z,1.67
2022-09-10T08:08:31.597Z,2.10
2022-09-10T08:11:13.272Z,2.08
2022-09-10T08:13:48.279Z,1.90
2022-09-10T08:16:19.294Z,1.48
2022-09-10T08:18:47.530Z,2.17
2022-09-10T08:21:15.632Z,1.42
2022-09-10T08:23:44.097Z,2.00
2022-09-10T08:26:10.721Z,1.70
2022-09-10T08:28:38.336Z,1.88
2022-09-10T08:31:08.913Z,2.03
2022-09-10T08:33:40.076Z,1.88
2022-09-10T08:36:11.876Z,2.05
2022-09-10T08:38:40.276Z,1.73
2022-09-10T08:41:31.579Z,1.50
2022-09-10T08:44:03.375Z,1.95
2022-09-10T08:46:37.559Z,2.20
2022-09-10T08:49:15.434Z,2.38
2022-09-10T08:51:53.860Z,2.65
2022-09-10T08:54:27.466Z,2.80
2022-09-10T08:56:58.320Z,2.88
2022-09-10T08:59:35.075Z,2.97
2022-09-10T09:02:47.128Z,3.78
2022-09-10T09:05:21.459Z,4.35
2022-09-10T09:07:48.643Z,3.78
2022-09-10T09:10:32.798Z,3.40
2022-09-10T09:13:39.139Z,3.35
2022-09-10T09:16:34.328Z,2.90
2022-09-10T09:19:29.344Z,3.50
2022-09-10T09:22:01.462Z,3.92
2022-09-10T09:24:49.291Z,3.97
2022-09-10T09:27:18.464Z,3.50
2022-09-10T09:30:00.200Z,4.05
2022-09-10T09:32:30.859Z,3.70
2022-09-10T09:35:19.775Z,3.63
2022-09-10T09:37:50.507Z,4.45
2022-09-10T09:40:31.092Z,3.65
2022-09-10T09:43:13.050Z,4.00
2022-09-10T09:45:43.838Z,3.92
2022-09-10T09:48:14.419Z,4.20
2022-09-10T09:50:43.625Z,4.05
2022-09-10T09:53:19.493Z,4.13
2022-09-10T09:55:53.887Z,4.40
2022-09-10T09:58:27.388Z,4.13
2022-09-10T10:01:06.736Z,4.30
2022-09-10T10:04:18.088Z,3.97
2022-09-10T10:07:01.163Z,3.70
2022-09-10T10:09:29.681Z,4.07
2022-09-10T10:11:59.770Z,4.90
2022-09-10T10:14:32.070Z,3.95
2022-09-10T10:17:01.154Z,4.43
2022-09-10T10:19:38.659Z,4.07
2022-09-10T10:22:14.350Z,3.33
2022-09-10T10:24:42.950Z,4.10
2022-09-10T10:27:35.089Z,3.90
2022-09-10T10:30:13.019Z,3.70
2022-09-10T10:32:47.452Z,3.95
2022-09-10T10:35:36.359Z,3.67
2022-09-10T10:38:32.764Z,3.55
2022-09-10T10:41:30.121Z,3.63
2022-09-10T10:44:03.371Z,3.40
2022-09-10T10:46:49.020Z,3.65
2022-09-10T10:49:42.606Z,3.85
2022-09-10T10:52:35.446Z,3.92
2022-09-10T10:55:20.764Z,3.78
2022-09-10T10:58:07.836Z,4.05
2022-09-10T11:00:53.523Z,3.47
2022-09-10T11:03:33.629Z,3.67
2022-09-10T11:06:08.467Z,4.00
2022-09-10T11:08:58.843Z,3.85
2022-09-10T11:11:33.243Z,3.75
2022-09-10T11:14:06.715Z,3.83
2022-09-10T11:16:41.770Z,4.03
2022-09-10T11:19:36.074Z,3.72
2022-09-10T11:22:15.342Z,5.20
2022-09-10T11:25:17.571Z,3.72
2022-09-10T11:27:50.119Z,4.28
2022-09-10T11:30:18.274Z,4.65
2022-09-10T11:32:59.155Z,4.00
2022-09-10T11:35:41.139Z,3.80
2022-09-10T11:38:18.399Z,3.58
2022-09-10T11:41:01.022Z,3.63
2022-09-10T11:43:52.867Z,4.30
2022-09-10T11:46:35.010Z,3.70
2022-09-10T11:49:36.569Z,4.00
2022-09-10T11:52:03.394Z,3.88
2022-09-10T11:54:34.645Z,3.80
2022-09-10T11:57:29.606Z,3.30
2022-09-10T12:00:17.277Z,3.28
2022-09-10T12:03:20.809Z,3.35
2022-09-10T12:06:03.627Z,3.45
2022-09-10T12:08:49.390Z,3.45
2022-09-10T12:11:28.284Z,3.67
2022-09-10T12:13:55.860Z,3.45
2022-09-10T12:16:25.675Z,3.10
2022-09-10T12:18:56.010Z,3.35
2022-09-10T12:21:48.723Z,3.25
2022-09-10T12:24:31.251Z,3.35
2022-09-10T12:27:00.622Z,3.10
2022-09-10T12:29:36.582Z,3.25
2022-09-10T12:32:09.937Z,3.55
2022-09-10T12:34:37.655Z,3.30
2022-09-10T12:37:04.591Z,3.28
2022-09-10T12:39:32.011Z,3.05
2022-09-10T12:42:00.147Z,3.85
2022-09-10T12:44:36.076Z,3.15
2022-09-10T12:47:18.241Z,3.38
2022-09-10T12:49:54.834Z,2.70
2022-09-10T12:52:57.499Z,2.83
2022-09-10T12:55:51.040Z,2.92
2022-09-10T12:58:41.687Z,2.55
2022-09-10T13:01:29.889Z,2.90
2022-09-10T13:04:00.715Z,2.67
2022-09-10T13:06:40.578Z,2.63
2022-09-10T13:09:23.823Z,3.00
2022-09-10T13:11:54.556Z,3.20
2022-09-10T13:14:33.113Z,2.90
2022-09-10T13:16:59.666Z,3.25
2022-09-10T13:19:26.515Z,2.92
2022-09-10T13:21:55.235Z,3.10
2022-09-10T13:24:36.518Z,2.97
2022-09-10T13:27:04.954Z,2.90
2022-09-10T13:29:38.820Z,2.67
2022-09-10T13:32:18.203Z,2.95
2022-09-10T13:35:17.359Z,2.90
2022-09-10T13:38:11.958Z,2.92
2022-09-10T13:40:54.110Z,2.45
2022-09-10T13:43:37.975Z,2.72
2022-09-10T13:46:20.798Z,3.42
2022-09-10T13:48:58.488Z,3.00
2022-09-10T13:51:55.239Z,3.13
2022-09-10T13:54:35.998Z,3.03
2022-09-10T13:57:13.134Z,2.40
2022-09-10T13:59:42.027Z,2.78
2022-09-10T14:02:09.095Z,2.40
2022-09-10T14:04:44.871Z,2.60
2022-09-10T14:07:17.418Z,2.45
2022-09-10T14:09:47.600Z,2.20
2022-09-10T14:12:16.360Z,2.83
2022-09-10T14:14:47.603Z,3.60
2022-09-10T14:17:25.980Z,3.20
2022-09-10T14:20:01.797Z,2.92
2022-09-10T14:22:32.151Z,3.00
2022-09-10T14:25:01.785Z,2.65
2022-09-10T14:27:37.407Z,2.70
2022-09-10T14:30:23.718Z,3.20
2022-09-10T14:32:52.027Z,3.13
2022-09-10T14:35:44.697Z,3.10
2022-09-10T14:38:24.246Z,3.28
2022-09-10T14:41:06.698Z,3.17
2022-09-10T14:43:38.248Z,3.13
2022-09-10T14:46:10.299Z,2.97
2022-09-10T14:48:42.398Z,2.83
2022-09-10T14:51:25.432Z,3.10
2022-09-10T14:53:56.895Z,3.38
2022-09-10T14:56:38.938Z,2.83
2022-09-10T14:59:14.271Z,2.83
2022-09-10T15:01:42.690Z,3.00
2022-09-10T15:04:13.794Z,2.70
2022-09-10T15:06:41.495Z,2.72
2022-09-10T15:09:08.061Z,2.75
2022-09-10T15:11:37.068Z,2.80
2022-09-10T15:14:04.010Z,2.40
2022-09-10T15:16:31.226Z,2.38
2022-09-10T15:18:58.207Z,2.42
2022-09-10T15:21:25.352Z,3.00
2022-09-10T15:23:51.854Z,2.92
2022-09-10T15:26:18.348Z,3.00
2022-09-10T15:28:45.725Z,2.25
2022-09-10T15:31:12.351Z,2.50
2022-09-10T15:33:40.327Z,2.97
2022-09-10T15:36:07.379Z,2.30
2022-09-10T15:38:34.270Z,3.00
2022-09-10T15:41:13.911Z,2.70
2022-09-10T15:43:45.543Z,2.70
2022-09-10T15:46:15.797Z,2.88
2022-09-10T15:48:43.198Z,2.47
2022-09-10T15:51:27.951Z,2.60
2022-09-10T15:53:55.519Z,2.70
2022-09-10T15:56:25.135Z,2.85
2022-09-10T15:58:55.839Z,2.63
2022-09-10T16:01:24.914Z,2.65
2022-09-10T16:03:55.686Z,2.35
2022-09-10T16:06:24.002Z,3.00
2022-09-10T16:09:02.613Z,2.85
2022-09-10T16:11:31.276Z,2.78
2022-09-10T16:14:04.065Z,3.03
2022-09-10T16:16:32.535Z,2.70
2022-09-10T16:19:00.730Z,2.65
2022-09-10T16:21:32.530Z,3.08
2022-09-10T16:24:01.127Z,2.95
2022-09-10T16:26:34.944Z,3.17
2022-09-10T16:29:13.496Z,3.13
2022-09-10T16:31:41.278Z,2.67
2022-09-10T16:34:11.777Z,2.80
2022-09-10T16:36:39.086Z,3.28
2022-09-10T16:39:12.599Z,3.78
2022-09-10T16:41:41.329Z,3.22
2022-09-10T16:44:08.782Z,4.10
2022-09-10T16:46:35.918Z,3.42
2022-09-10T16:49:02.854Z,3.65
2022-09-10T16:51:29.343Z,3.53
2022-09-10T16:53:58.320Z,3.30
2022-09-10T16:56:26.135Z,3.15
2022-09-10T16:58:53.020Z,5.15
2022-09-10T17:01:21.159Z,3.00
2022-09-10T17:03:49.765Z,3.17
2022-09-10T17:06:22.514Z,3.00
2022-09-10T17:08:50.365Z,2.83
2022-09-10T17:11:19.520Z,2.60
2022-09-10T17:13:46.825Z,3.08
2022-09-10T17:16:30.932Z,2.90
2022-09-10T17:19:07.299Z,2.50
2022-09-10T17:21:35.267Z,3.55
2022-09-10T17:24:03.476Z,2.85
2022-09-10T17:26:31.544Z,3.30
2022-09-10T17:29:01.010Z,2.88
2022-09-10T17:31:29.779Z,2.92
2022-09-10T17:33:57.191Z,3.25
2022-09-10T17:36:25.657Z,2.97
2022-09-10T17:38:53.632Z,3.28
2022-09-10T17:41:22.003Z,3.13
2022-09-10T17:43:49.580Z,3.10
2022-09-10T17:46:19.335Z,3.20
2022-09-10T17:48:46.397Z,2.83
2022-09-10T17:51:16.076Z,3.05
2022-09-10T17:53:44.172Z,3.63
2022-09-10T17:56:14.007Z,3.30
2022-09-10T17:58:41.208Z,3.45
2022-09-10T18:01:30.180Z,3.13
2022-09-10T18:03:56.768Z,2.78
2022-09-10T18:06:28.762Z,3.13
2022-09-10T18:08:59.309Z,3.03
2022-09-10T18:11:27.581Z,2.95
2022-09-10T18:13:56.160Z,3.35
2022-09-10T18:16:25.467Z,2.88
2022-09-10T18:18:59.868Z,3.00
2022-09-10T18:21:35.979Z,3.38
2022-09-10T18:24:05.558Z,3.20
2022-09-10T18:26:38.578Z,3.35
2022-09-10T18:29:08.117Z,3.50
2022-09-10T18:31:44.008Z,3.85
2022-09-10T18:34:17.542Z,3.55
2022-09-10T18:36:48.036Z,3.80
2022-09-10T18:39:15.315Z,3.55
2022-09-10T18:41:43.203Z,3.92
2022-09-10T18:44:18.633Z,3.20
2022-09-10T18:46:46.971Z,3.42
2022-09-10T18:49:20.336Z,3.42
2022-09-10T18:51:49.681Z,3.30
2022-09-10T18:54:17.760Z,3.28
2022-09-10T18:56:45.365Z,3.42
2022-09-10T18:59:15.466Z,3.85
2022-09-10T19:01:44.298Z,3.75
2022-09-10T19:04:14.560Z,4.57
2022-09-10T19:06:44.664Z,4.15
2022-09-10T19:09:14.452Z,4.18
2022-09-10T19:11:46.850Z,4.20
2022-09-10T19:14:26.162Z,4.35
2022-09-10T19:16:55.199Z,4.15
2022-09-10T19:19:23.981Z,4.18
2022-09-10T19:21:56.537Z,4.47
2022-09-10T19:24:50.883Z,5.25
2022-09-10T19:27:16.506Z,5.28
2022-09-10T19:29:43.470Z,5.72
2022-09-10T19:32:11.126Z,6.50
2022-09-10T19:34:38.035Z,6.03
2022-09-10T19:37:04.546Z,6.28
2022-09-10T19:39:31.060Z,5.60
2022-09-10T19:41:57.966Z,5.90
2022-09-10T19:44:24.877Z,5.38
2022-09-10T19:46:51.792Z,5.47
2022-09-10T19:49:18.401Z,5.60
2022-09-10T19:51:44.913Z,6.00
2022-09-10T19:54:14.891Z,6.45
2022-09-10T19:56:42.487Z,6.30
2022-09-10T19:59:09.848Z,5.90
2022-09-10T20:01:42.232Z,6.18
2022-09-10T20:04:11.716Z,5.90
2022-09-10T20:06:39.249Z,6.40
2022-09-10T20:09:07.545Z,5.93
2022-09-10T20:11:35.469Z,6.70
2022-09-10T20:14:15.471Z,7.05
2022-09-10T20:16:44.804Z,6.63
2022-09-10T20:19:13.488Z,6.35
2022-09-10T20:21:40.684Z,5.80
2022-09-10T20:24:07.956Z,6.20
2022-09-10T20:26:41.415Z,6.07
2022-09-10T20:29:12.724Z,5.40
2022-09-10T20:31:42.199Z,6.93
2022-09-10T20:34:12.783Z,7.65
2022-09-10T20:36:42.481Z,7.25
2022-09-10T20:39:11.556Z,6.55
2022-09-10T20:41:39.820Z,6.22
2022-09-10T20:44:07.305Z,6.88
2022-09-10T20:46:34.822Z,6.35
2022-09-10T20:49:04.626Z,6.85
2022-09-10T20:51:36.919Z,6.93
2022-09-10T20:54:05.567Z,7.30
2022-09-10T20:56:32.383Z,7.22
2022-09-10T20:58:59.806Z,6.57
2022-09-10T21:01:28.331Z,6.28
2022-09-10T21:03:58.284Z,6.93
2022-09-10T21:06:27.393Z,6.72
2022-09-10T21:08:57.392Z,7.07
2022-09-10T21:11:26.546Z,7.00
2022-09-10T21:13:55.682Z,6.72
2022-09-10T21:16:24.486Z,6.90
2022-09-10T21:18:54.821Z,6.95
2022-09-10T21:21:26.801Z,7.97
2022-09-10T21:23:56.170Z,8.75
2022-09-10T21:26:27.184Z,8.48
2022-09-10T21:28:56.603Z,9.10
2022-09-10T21:31:24.127Z,9.85
2022-09-10T21:33:51.460Z,10.40
2022-09-10T21:36:20.174Z,11.77
2022-09-10T21:38:52.065Z,12.23
2022-09-10T21:41:26.068Z,11.57
2022-09-10T21:43:52.664Z,12.57
2022-09-10T21:46:20.927Z,13.48
2022-09-10T21:48:47.445Z,13.65
2022-09-10T21:51:17.898Z,13.90
2022-09-10T21:53:45.503Z,14.95
2022-09-10T21:56:14.428Z,15.68
2022-09-10T21:58:42.747Z,15.02
2022-09-10T22:01:11.989Z,15.70
2022-09-10T22:03:39.770Z,16.40
2022-09-10T22:06:12.262Z,15.68
2022-09-10T22:08:44.399Z,16.13
2022-09-10T22:11:14.613Z,18.60
2022-09-10T22:13:42.926Z,15.88
2022-09-10T22:16:12.855Z,16.30
2022-09-10T22:18:39.816Z,14.48
2022-09-10T22:21:07.086Z,16.83
2022-09-10T22:23:35.951Z,15.95
2022-09-10T22:26:05.034Z,15.93
2022-09-10T22:28:34.871Z,15.15
2022-09-10T22:31:12.023Z,17.90
2022-09-10T22:33:43.295Z,15.93
2022-09-10T22:36:36.889Z,16.33
2022-09-10T22:39:10.595Z,16.88
2022-09-10T22:41:38.590Z,18.60
2022-09-10T22:44:05.889Z,17.23
2022-09-10T22:46:33.660Z,16.48
2022-09-10T22:49:01.528Z,17.45
2022-09-10T22:51:34.743Z,17.48
2022-09-10T22:54:02.431Z,18.83
2022-09-10T22:56:29.942Z,17.58
2022-09-10T22:58:59.133Z,18.80
2022-09-10T23:01:28.742Z,17.23
2022-09-10T23:04:00.726Z,19.08
2022-09-10T23:06:30.727Z,16.75
2022-09-10T23:09:02.940Z,18.52
2022-09-10T23:11:31.629Z,17.45
2022-09-10T23:14:01.882Z,19.40
2022-09-10T23:16:42.879Z,18.80
2022-09-10T23:19:21.817Z,17.48
2022-09-10T23:21:51.134Z,19.13
2022-09-10T23:24:20.653Z,17.95
2022-09-10T23:26:47.187Z,19.15
2022-09-10T23:29:17.363Z,19.38
2022-09-10T23:31:45.972Z,19.30
2022-09-10T23:34:18.359Z,17.92
2022-09-10T23:36:47.864Z,18.65
2022-09-10T23:39:20.142Z,21.15
2022-09-10T23:41:51.685Z,20.10
2022-09-10T23:44:18.525Z,19.77
2022-09-10T23:46:45.623Z,18.20
2022-09-10T23:49:12.727Z,18.20
2022-09-10T23:51:39.821Z,18.90
2022-09-10T23:54:06.355Z,20.35
2022-09-10T23:56:33.667Z,19.25
2022-09-10T23:59:00.824Z,19.70
